Terminal Aerodrome Forecast
Issued by NWS Sioux Falls, SD

Home | Current Version | Previous Version | Graphics & Text | Print | Product List | Glossary On
Versions: 1 2 3 4 5 6 7 8 9 10 11 12 13 14 15 16 17
642
FTUS43 KFSD 251058 AAA
TAFHON
TAF AMD
KHON 251058Z 2511/2606 08006KT P6SM OVC008
     FM251700 10007KT P6SM BKN020
     FM251900 10007KT P6SM SCT200=

USA.gov is the U.S. government's official web portal to all federal, state and local government web resources and services.